createdAt,value
2018-07-21T00:00:57.589Z,3.40
2018-07-21T00:01:57.587Z,3.80
2018-07-21T00:02:57.586Z,3.80
2018-07-21T00:03:57.597Z,3.50
2018-07-21T00:04:57.588Z,3.70
2018-07-21T00:05:57.587Z,3.60
2018-07-21T00:06:57.588Z,3.50
2018-07-21T00:07:57.588Z,3.80
2018-07-21T00:08:57.588Z,3.50
2018-07-21T00:09:57.593Z,3.50
2018-07-21T00:10:57.589Z,3.80
2018-07-21T00:11:57.585Z,3.90
2018-07-21T00:12:57.588Z,3.60
2018-07-21T00:13:57.591Z,3.80
2018-07-21T00:14:57.590Z,3.80
2018-07-21T00:15:57.590Z,3.60
2018-07-21T00:16:57.591Z,3.70
2018-07-21T00:17:57.591Z,3.70
2018-07-21T00:18:57.590Z,3.80
2018-07-21T00:19:57.591Z,3.90
2018-07-21T00:20:57.593Z,4.10
2018-07-21T00:21:57.590Z,4.10
2018-07-21T00:22:57.591Z,4.10
2018-07-21T00:23:57.592Z,4.00
2018-07-21T00:24:57.591Z,3.90
2018-07-21T00:25:57.591Z,3.80
2018-07-21T00:26:57.586Z,4.40
2018-07-21T00:27:57.590Z,4.10
2018-07-21T00:28:57.594Z,4.20
2018-07-21T00:29:57.591Z,3.90
2018-07-21T00:30:57.610Z,3.90
2018-07-21T00:31:57.598Z,4.10
2018-07-21T00:32:57.592Z,3.90
2018-07-21T00:33:57.592Z,3.80
2018-07-21T00:34:57.593Z,3.80
2018-07-21T00:35:57.592Z,4.00
2018-07-21T00:36:57.598Z,4.00
2018-07-21T00:37:57.598Z,3.80
2018-07-21T00:38:57.592Z,3.90
2018-07-21T00:39:57.592Z,3.90
2018-07-21T00:40:57.592Z,4.30
2018-07-21T00:41:57.593Z,3.90
2018-07-21T00:42:57.592Z,3.80
2018-07-21T00:43:57.592Z,4.00
2018-07-21T00:44:57.593Z,3.90
2018-07-21T00:45:57.593Z,3.70
2018-07-21T00:46:57.592Z,3.90
2018-07-21T00:47:57.592Z,3.90
2018-07-21T00:48:57.591Z,4.10
2018-07-21T00:49:57.593Z,4.00
2018-07-21T00:50:57.600Z,3.80
2018-07-21T00:51:57.597Z,4.00
2018-07-21T00:52:57.592Z,4.00
2018-07-21T00:53:57.597Z,3.90
2018-07-21T00:54:57.591Z,3.90
2018-07-21T00:55:57.589Z,4.20
2018-07-21T00:56:57.592Z,4.00
2018-07-21T00:57:57.590Z,4.10
2018-07-21T00:58:57.591Z,4.20
2018-07-21T00:59:57.599Z,4.00
2018-07-21T01:00:57.592Z,4.50
2018-07-21T01:01:57.592Z,4.10
2018-07-21T01:02:57.595Z,4.10
2018-07-21T01:03:57.593Z,4.20
2018-07-21T01:04:57.593Z,4.40
2018-07-21T01:05:57.598Z,4.20
2018-07-21T01:06:57.599Z,4.10
2018-07-21T01:07:57.594Z,4.20
2018-07-21T01:08:57.591Z,4.40
2018-07-21T01:09:57.590Z,4.20
2018-07-21T01:10:57.589Z,4.30
2018-07-21T01:11:57.590Z,4.00
2018-07-21T01:12:57.588Z,4.40
2018-07-21T01:13:57.589Z,4.40
2018-07-21T01:14:57.589Z,4.30
2018-07-21T01:15:57.590Z,4.50
2018-07-21T01:16:57.590Z,4.10
2018-07-21T01:17:57.594Z,4.30
2018-07-21T01:18:57.588Z,4.60
2018-07-21T01:19:57.590Z,4.30
2018-07-21T01:20:57.593Z,4.50
2018-07-21T01:21:57.594Z,4.30
2018-07-21T01:22:57.587Z,4.50
2018-07-21T01:23:57.591Z,4.70
2018-07-21T01:24:57.584Z,4.50
2018-07-21T01:25:57.588Z,4.30
2018-07-21T01:26:57.584Z,4.40
2018-07-21T01:27:57.584Z,4.40
2018-07-21T01:28:57.589Z,4.40
2018-07-21T01:29:57.587Z,4.40
2018-07-21T01:30:57.606Z,4.50
2018-07-21T01:31:57.588Z,4.20
2018-07-21T01:32:57.588Z,4.80
2018-07-21T01:33:57.587Z,4.60
2018-07-21T01:34:57.588Z,4.40
2018-07-21T01:35:57.586Z,4.60
2018-07-21T01:36:57.583Z,4.90
2018-07-21T01:37:57.585Z,4.30
2018-07-21T01:38:57.583Z,4.60
2018-07-21T01:39:57.585Z,4.50
2018-07-21T01:40:57.582Z,4.30
2018-07-21T01:41:57.579Z,4.40
2018-07-21T01:42:57.580Z,4.00
2018-07-21T01:43:57.583Z,4.10
2018-07-21T01:44:57.582Z,4.10
2018-07-21T01:45:57.583Z,4.20
2018-07-21T01:46:57.581Z,4.70
2018-07-21T01:47:57.579Z,4.70
2018-07-21T01:48:57.580Z,4.20
2018-07-21T01:49:57.582Z,4.40
2018-07-21T01:50:57.617Z,4.20
2018-07-21T01:51:57.578Z,4.20
2018-07-21T01:52:57.580Z,4.40
2018-07-21T01:53:57.579Z,4.40
2018-07-21T01:54:57.579Z,4.30
2018-07-21T01:55:57.577Z,4.20
2018-07-21T01:56:57.573Z,4.30
2018-07-21T01:57:57.578Z,4.30
2018-07-21T01:58:57.577Z,4.00
2018-07-21T01:59:57.576Z,4.20
2018-07-21T02:00:57.577Z,4.40
2018-07-21T02:01:57.576Z,4.10
2018-07-21T02:02:57.574Z,4.40
2018-07-21T02:03:57.574Z,4.70
2018-07-21T02:04:57.577Z,4.20
2018-07-21T02:05:57.571Z,4.40
2018-07-21T02:06:57.572Z,4.40
2018-07-21T02:07:57.568Z,4.10
2018-07-21T02:08:57.567Z,4.50
2018-07-21T02:09:57.570Z,4.40
2018-07-21T02:10:57.567Z,4.40
2018-07-21T02:11:57.568Z,4.40
2018-07-21T02:12:57.574Z,4.70
2018-07-21T02:13:57.571Z,4.40
2018-07-21T02:14:57.567Z,3.90
2018-07-21T02:15:57.566Z,4.30
2018-07-21T02:16:57.564Z,4.40
2018-07-21T02:17:57.571Z,4.40
2018-07-21T02:18:57.568Z,4.30
2018-07-21T02:19:57.563Z,4.30
2018-07-21T02:20:57.566Z,4.30
2018-07-21T02:21:57.562Z,4.30
2018-07-21T02:22:57.562Z,3.90
2018-07-21T02:23:57.563Z,4.20
2018-07-21T02:24:57.558Z,4.00
2018-07-21T02:25:57.562Z,4.50
2018-07-21T02:26:57.559Z,4.50
2018-07-21T02:27:57.560Z,4.20
2018-07-21T02:28:57.561Z,4.60
2018-07-21T02:29:57.559Z,4.40
2018-07-21T02:30:57.557Z,4.40
2018-07-21T02:31:57.556Z,4.30
2018-07-21T02:32:57.561Z,4.30
2018-07-21T02:33:57.554Z,4.50
2018-07-21T02:34:57.557Z,4.80
2018-07-21T02:35:57.556Z,4.30
2018-07-21T02:36:57.554Z,4.60
2018-07-21T02:37:57.553Z,4.50
2018-07-21T02:38:57.550Z,4.60
2018-07-21T02:39:57.554Z,4.70
2018-07-21T02:40:57.550Z,4.80
2018-07-21T02:41:57.551Z,4.50
2018-07-21T02:42:57.547Z,4.60
2018-07-21T02:43:57.551Z,4.20
2018-07-21T02:44:57.548Z,4.50
2018-07-21T02:45:57.547Z,4.50
2018-07-21T02:46:57.555Z,4.30
2018-07-21T02:47:57.545Z,4.50
2018-07-21T02:48:57.550Z,4.10
2018-07-21T02:49:57.547Z,4.10
2018-07-21T02:50:57.544Z,4.20
2018-07-21T02:51:57.538Z,4.30
2018-07-21T02:52:57.541Z,4.60
2018-07-21T02:53:57.543Z,4.50
2018-07-21T02:54:57.542Z,4.10
2018-07-21T02:55:57.541Z,4.50
2018-07-21T02:56:57.542Z,4.60
2018-07-21T02:57:57.541Z,4.50
2018-07-21T02:58:57.539Z,4.30
2018-07-21T02:59:57.542Z,4.20
2018-07-21T03:00:57.543Z,4.70
2018-07-21T03:01:57.549Z,4.60
2018-07-21T03:02:57.536Z,4.60
2018-07-21T03:03:57.535Z,4.60
2018-07-21T03:04:57.534Z,4.40
2018-07-21T03:05:57.530Z,4.20
2018-07-21T03:06:57.532Z,4.20
2018-07-21T03:07:57.532Z,4.40
2018-07-21T03:08:57.532Z,4.20
2018-07-21T03:09:57.745Z,4.40
2018-07-21T03:10:57.531Z,3.90
2018-07-21T03:11:57.539Z,4.30
2018-07-21T03:12:57.531Z,4.40
2018-07-21T03:13:57.539Z,4.40
2018-07-21T03:14:57.527Z,4.40
2018-07-21T03:15:57.528Z,4.40
2018-07-21T03:16:57.526Z,4.30
2018-07-21T03:17:57.530Z,4.00
2018-07-21T03:18:57.523Z,4.30
2018-07-21T03:19:57.520Z,4.30
2018-07-21T03:20:57.525Z,4.60
2018-07-21T03:21:57.527Z,4.50
2018-07-21T03:22:57.525Z,4.70
2018-07-21T03:23:57.521Z,4.30
2018-07-21T03:24:57.524Z,4.50
2018-07-21T03:25:57.519Z,4.30
2018-07-21T03:26:57.518Z,4.40
2018-07-21T03:27:57.548Z,4.60
2018-07-21T03:28:57.515Z,4.10
2018-07-21T03:29:57.517Z,4.10
2018-07-21T03:30:57.541Z,4.20
2018-07-21T03:31:57.518Z,4.20
2018-07-21T03:32:57.514Z,4.30
2018-07-21T03:33:57.511Z,4.20
2018-07-21T03:34:57.512Z,4.10
2018-07-21T03:35:57.512Z,4.40
2018-07-21T03:36:57.514Z,4.50
2018-07-21T03:37:57.511Z,4.30
2018-07-21T03:38:57.509Z,4.20
2018-07-21T03:39:57.510Z,4.00
2018-07-21T03:40:57.508Z,4.00
2018-07-21T03:41:57.517Z,4.40
2018-07-21T03:42:57.508Z,4.10
2018-07-21T03:43:57.505Z,4.10
2018-07-21T03:44:57.506Z,3.90
2018-07-21T03:45:57.503Z,3.90
2018-07-21T03:46:57.507Z,4.00
2018-07-21T03:47:57.503Z,4.00
2018-07-21T03:48:57.503Z,4.20
2018-07-21T03:49:57.502Z,4.00
2018-07-21T03:50:57.502Z,4.10
2018-07-21T03:51:57.501Z,3.60
2018-07-21T03:52:57.503Z,4.00
2018-07-21T03:53:57.508Z,3.80
2018-07-21T03:54:57.509Z,4.10
2018-07-21T03:55:57.506Z,4.00
2018-07-21T03:56:57.496Z,4.10
2018-07-21T03:57:57.500Z,4.10
2018-07-21T03:58:57.497Z,4.20
2018-07-21T03:59:57.490Z,3.90
2018-07-21T04:00:57.492Z,3.90
2018-07-21T04:01:57.498Z,3.60
2018-07-21T04:02:57.494Z,4.00
2018-07-21T04:03:57.493Z,4.10
2018-07-21T04:04:57.493Z,4.00
2018-07-21T04:05:57.494Z,3.80
2018-07-21T04:06:57.495Z,3.80
2018-07-21T04:07:57.493Z,3.70
2018-07-21T04:08:57.549Z,3.80
2018-07-21T04:09:57.496Z,3.70
2018-07-21T04:10:57.493Z,3.90
2018-07-21T04:11:57.494Z,3.90
2018-07-21T04:12:57.493Z,3.70
2018-07-21T04:13:57.496Z,3.80
2018-07-21T04:14:57.492Z,3.80
2018-07-21T04:15:57.497Z,3.70
2018-07-21T04:16:57.491Z,4.00
2018-07-21T04:17:57.498Z,3.80
2018-07-21T04:18:57.492Z,3.80
2018-07-21T04:19:57.496Z,3.90
2018-07-21T04:20:57.497Z,3.80
2018-07-21T04:21:57.494Z,3.90
2018-07-21T04:22:57.494Z,3.60
2018-07-21T04:23:57.495Z,3.80
2018-07-21T04:24:57.495Z,3.70
2018-07-21T04:25:57.501Z,3.60
2018-07-21T04:26:57.495Z,3.70
2018-07-21T04:27:57.495Z,3.50
2018-07-21T04:28:57.506Z,3.10
2018-07-21T04:29:57.496Z,3.80
2018-07-21T04:30:57.500Z,3.60
2018-07-21T04:31:57.494Z,3.70
2018-07-21T04:32:57.497Z,3.50
2018-07-21T04:33:57.503Z,3.80
2018-07-21T04:34:57.500Z,3.80
2018-07-21T04:35:57.501Z,3.50
2018-07-21T04:36:57.500Z,3.30
2018-07-21T04:37:57.502Z,3.80
2018-07-21T04:38:57.503Z,3.60
2018-07-21T04:39:57.504Z,3.70
2018-07-21T04:40:57.503Z,3.60
2018-07-21T04:41:57.505Z,3.30
2018-07-21T04:42:57.504Z,3.70
2018-07-21T04:43:57.505Z,3.40
2018-07-21T04:44:57.509Z,3.40
2018-07-21T04:45:57.510Z,3.70
2018-07-21T04:46:57.510Z,3.50
2018-07-21T04:47:57.511Z,3.60
2018-07-21T04:48:57.509Z,3.50
2018-07-21T04:49:57.510Z,3.70
2018-07-21T04:50:57.515Z,3.70
2018-07-21T04:51:57.514Z,3.60
2018-07-21T04:52:57.516Z,3.60
2018-07-21T04:53:57.581Z,3.20
2018-07-21T04:54:57.523Z,3.50
2018-07-21T04:55:57.519Z,3.50
2018-07-21T04:56:57.520Z,3.70
2018-07-21T04:57:57.522Z,3.30
2018-07-21T04:58:57.534Z,3.50
2018-07-21T04:59:57.525Z,3.30
2018-07-21T05:00:57.606Z,3.50
2018-07-21T05:01:57.525Z,3.60
2018-07-21T05:02:57.529Z,3.40
2018-07-21T05:03:57.531Z,3.20
2018-07-21T05:04:57.532Z,3.40
2018-07-21T05:05:57.537Z,3.50
2018-07-21T05:06:57.536Z,3.60
2018-07-21T05:07:57.536Z,3.60
2018-07-21T05:08:57.538Z,3.40
2018-07-21T05:09:57.544Z,3.50
2018-07-21T05:10:57.544Z,3.40
2018-07-21T05:11:57.547Z,3.30
2018-07-21T05:12:57.548Z,3.40
2018-07-21T05:13:57.552Z,3.30
2018-07-21T05:14:57.552Z,3.30
2018-07-21T05:15:57.554Z,3.30
2018-07-21T05:16:57.556Z,3.30
2018-07-21T05:17:57.632Z,3.60
2018-07-21T05:18:57.638Z,3.50
2018-07-21T05:19:57.649Z,3.50
2018-07-21T05:20:57.647Z,3.30
2018-07-21T05:21:57.573Z,3.50
2018-07-21T05:22:57.610Z,3.50
2018-07-21T05:23:57.614Z,3.60
2018-07-21T05:24:57.621Z,3.30
2018-07-21T05:25:57.629Z,3.50
2018-07-21T05:26:57.584Z,3.50
2018-07-21T05:27:57.633Z,3.30
2018-07-21T05:28:57.646Z,3.30
2018-07-21T05:29:57.644Z,3.20
2018-07-21T05:30:57.648Z,3.10
2018-07-21T05:31:57.653Z,3.20
2018-07-21T05:32:57.597Z,3.30
2018-07-21T05:33:57.667Z,3.60
2018-07-21T05:34:57.606Z,3.50
2018-07-21T05:35:57.612Z,3.50
2018-07-21T05:36:57.616Z,3.40
2018-07-21T05:37:57.620Z,3.40
2018-07-21T05:38:57.645Z,3.10
2018-07-21T05:39:57.627Z,3.10
2018-07-21T05:40:57.629Z,3.30
2018-07-21T05:41:57.635Z,3.10
2018-07-21T05:42:57.635Z,3.30
2018-07-21T05:43:57.645Z,3.40
2018-07-21T05:44:57.695Z,3.20
2018-07-21T05:45:57.650Z,3.20
2018-07-21T05:46:57.653Z,3.50
2018-07-21T05:47:57.658Z,3.40
2018-07-21T05:48:57.662Z,3.20
2018-07-21T05:49:57.665Z,2.90
2018-07-21T05:50:57.673Z,2.90
2018-07-21T05:51:57.672Z,2.80
2018-07-21T05:52:57.678Z,2.90
2018-07-21T05:53:57.684Z,2.70
2018-07-21T05:54:57.691Z,2.60
2018-07-21T05:55:57.699Z,2.80
2018-07-21T05:56:57.694Z,2.80
2018-07-21T05:57:57.697Z,2.60
2018-07-21T05:58:57.700Z,2.60
2018-07-21T05:59:57.708Z,2.40
2018-07-21T06:00:57.715Z,2.50
2018-07-21T06:01:57.717Z,2.40
2018-07-21T06:02:57.730Z,2.40
2018-07-21T06:03:57.726Z,2.50
2018-07-21T06:04:57.729Z,2.50
2018-07-21T06:05:57.734Z,2.80
2018-07-21T06:06:57.740Z,2.40
2018-07-21T06:07:57.745Z,2.30
2018-07-21T06:08:57.748Z,2.60
2018-07-21T06:09:57.756Z,2.70
2018-07-21T06:10:57.762Z,2.70
2018-07-21T06:11:57.758Z,2.60
2018-07-21T06:12:57.762Z,2.80
2018-07-21T06:13:57.800Z,2.70
2018-07-21T06:14:57.772Z,2.60
2018-07-21T06:15:57.777Z,2.40
2018-07-21T06:16:57.826Z,2.50
2018-07-21T06:17:57.786Z,2.50
2018-07-21T06:18:57.789Z,2.50
2018-07-21T06:19:57.795Z,2.40
2018-07-21T06:20:57.806Z,2.60
2018-07-21T06:21:57.807Z,2.40
2018-07-21T06:22:57.812Z,2.10
2018-07-21T06:23:57.817Z,2.30
2018-07-21T06:24:57.820Z,2.20
2018-07-21T06:25:57.825Z,2.10
2018-07-21T06:26:57.828Z,2.40
2018-07-21T06:27:57.844Z,2.20
2018-07-21T06:28:57.842Z,2.40
2018-07-21T06:29:57.851Z,2.40
2018-07-21T06:30:57.849Z,2.30
2018-07-21T06:31:57.854Z,2.20
2018-07-21T06:32:57.915Z,2.30
2018-07-21T06:33:57.866Z,2.30
2018-07-21T06:34:57.870Z,2.30
2018-07-21T06:35:57.875Z,2.20
2018-07-21T06:36:57.886Z,2.40
2018-07-21T06:37:57.896Z,2.30
2018-07-21T06:38:57.893Z,2.00
2018-07-21T06:39:57.900Z,2.30
2018-07-21T06:40:57.902Z,2.20
2018-07-21T06:41:57.909Z,2.20
2018-07-21T06:42:57.912Z,2.50
2018-07-21T06:43:57.986Z,2.20
2018-07-21T06:44:57.925Z,2.20
2018-07-21T06:45:57.930Z,2.30
2018-07-21T06:46:57.938Z,2.30
2018-07-21T06:47:57.944Z,2.50
2018-07-21T06:48:57.950Z,1.90
2018-07-21T06:49:57.957Z,2.20
2018-07-21T06:50:57.964Z,2.10
2018-07-21T06:51:57.972Z,2.10
2018-07-21T06:52:57.979Z,2.30
2018-07-21T06:53:57.989Z,2.30
2018-07-21T06:54:57.992Z,2.10
2018-07-21T06:55:57.992Z,2.10
2018-07-21T06:56:57.999Z,2.20
2018-07-21T06:57:58.005Z,2.40
2018-07-21T06:58:58.019Z,2.20
2018-07-21T06:59:58.024Z,2.30
2018-07-21T07:00:58.020Z,2.30
2018-07-21T07:01:58.030Z,2.40
2018-07-21T07:02:58.032Z,2.30
2018-07-21T07:03:58.037Z,2.30
2018-07-21T07:04:58.048Z,2.60
2018-07-21T07:05:58.053Z,2.30
2018-07-21T07:06:58.058Z,2.20
2018-07-21T07:07:58.065Z,2.20
2018-07-21T07:08:58.070Z,2.30
2018-07-21T07:09:58.078Z,2.10
2018-07-21T07:10:58.085Z,2.10
2018-07-21T07:11:58.094Z,2.40
2018-07-21T07:12:58.099Z,2.40
2018-07-21T07:13:58.105Z,2.40
2018-07-21T07:14:58.113Z,2.40
2018-07-21T07:15:58.117Z,2.30
2018-07-21T07:16:58.124Z,2.10
2018-07-21T07:17:58.130Z,2.50
2018-07-21T07:18:58.137Z,2.60
2018-07-21T07:19:58.143Z,2.40
2018-07-21T07:20:58.150Z,2.40
2018-07-21T07:21:58.158Z,2.30
2018-07-21T07:22:58.165Z,2.50
2018-07-21T07:23:58.173Z,2.50
2018-07-21T07:24:58.179Z,2.40
2018-07-21T07:25:58.186Z,2.30
2018-07-21T07:26:58.192Z,2.50
2018-07-21T07:27:58.198Z,2.40
2018-07-21T07:28:58.205Z,2.60
2018-07-21T07:29:58.222Z,2.30
2018-07-21T07:30:58.219Z,2.40
2018-07-21T07:31:58.227Z,2.40
2018-07-21T07:32:58.257Z,2.60
2018-07-21T07:33:58.241Z,2.30
2018-07-21T07:34:58.251Z,2.50
2018-07-21T07:35:58.255Z,2.40
2018-07-21T07:36:58.274Z,2.50
2018-07-21T07:37:58.267Z,2.60
2018-07-21T07:38:58.280Z,2.40
2018-07-21T07:39:58.284Z,2.30
2018-07-21T07:40:58.287Z,2.40
2018-07-21T07:41:58.299Z,2.60
2018-07-21T07:42:58.317Z,2.40
2018-07-21T07:43:58.316Z,2.70
2018-07-21T07:44:58.317Z,2.60
2018-07-21T07:45:58.329Z,2.50
2018-07-21T07:46:58.331Z,2.50
2018-07-21T07:47:58.349Z,2.60
2018-07-21T07:48:58.358Z,2.50
2018-07-21T07:49:58.363Z,2.60
2018-07-21T07:50:58.370Z,2.30
2018-07-21T07:51:58.376Z,2.40
2018-07-21T07:52:58.392Z,2.20
2018-07-21T07:53:58.384Z,2.40
2018-07-21T07:54:58.400Z,2.50
2018-07-21T07:55:58.404Z,2.60
2018-07-21T07:56:58.412Z,2.40
2018-07-21T07:57:58.424Z,2.70
2018-07-21T07:58:58.429Z,2.40
2018-07-21T07:59:58.436Z,2.40
2018-07-21T08:00:58.467Z,2.30
2018-07-21T08:01:58.459Z,2.30
2018-07-21T08:02:58.460Z,2.40
2018-07-21T08:03:58.467Z,2.50
2018-07-21T08:04:58.474Z,2.40
2018-07-21T08:05:58.489Z,2.40
2018-07-21T08:06:58.490Z,2.60
2018-07-21T08:07:58.501Z,2.30
2018-07-21T08:08:58.508Z,2.40
2018-07-21T08:09:58.516Z,2.60
2018-07-21T08:10:58.527Z,2.50
2018-07-21T08:11:58.532Z,2.50
2018-07-21T08:12:58.540Z,2.50
2018-07-21T08:13:58.560Z,2.50
2018-07-21T08:14:58.560Z,2.60
2018-07-21T08:15:58.568Z,2.40
2018-07-21T08:16:58.575Z,2.70
2018-07-21T08:17:58.582Z,2.50
2018-07-21T08:18:58.612Z,2.30
2018-07-21T08:19:58.600Z,2.30
2018-07-21T08:20:58.608Z,2.50
2018-07-21T08:21:58.617Z,2.60
2018-07-21T08:22:58.624Z,2.60
2018-07-21T08:23:58.646Z,2.50
2018-07-21T08:24:58.642Z,2.60
2018-07-21T08:25:58.651Z,2.60
2018-07-21T08:26:58.662Z,2.60
2018-07-21T08:27:58.668Z,2.50
2018-07-21T08:28:58.777Z,2.70
2018-07-21T08:29:58.683Z,2.60
2018-07-21T08:30:58.690Z,2.50
2018-07-21T08:31:58.698Z,2.50
2018-07-21T08:32:58.706Z,2.40
2018-07-21T08:33:58.721Z,2.50
2018-07-21T08:34:58.728Z,2.60
2018-07-21T08:35:58.771Z,2.70
2018-07-21T08:36:58.748Z,2.80
2018-07-21T08:37:58.756Z,2.80
2018-07-21T08:38:58.768Z,2.70
2018-07-21T08:39:58.787Z,2.60
2018-07-21T08:40:58.784Z,2.40
2018-07-21T08:41:58.803Z,2.60
2018-07-21T08:42:58.804Z,2.70
2018-07-21T08:43:58.812Z,2.60
2018-07-21T08:44:58.820Z,2.40
2018-07-21T08:45:58.842Z,2.60
2018-07-21T08:46:58.848Z,2.60
2018-07-21T08:47:58.918Z,2.80
2018-07-21T08:48:58.860Z,2.70
2018-07-21T08:49:58.893Z,2.90
2018-07-21T08:50:58.886Z,2.40
2018-07-21T08:51:58.895Z,2.70
2018-07-21T08:52:58.906Z,2.70
2018-07-21T08:53:58.916Z,2.80
2018-07-21T08:54:58.921Z,2.70
2018-07-21T08:55:58.947Z,2.60
2018-07-21T08:56:58.942Z,2.90
2018-07-21T08:57:58.956Z,2.60
2018-07-21T08:58:59.002Z,2.60
2018-07-21T08:59:58.971Z,2.90
2018-07-21T09:00:58.979Z,2.80
2018-07-21T09:01:58.989Z,2.70
2018-07-21T09:02:59.000Z,2.80
2018-07-21T09:03:59.010Z,2.70
2018-07-21T09:04:59.022Z,2.60
2018-07-21T09:05:59.028Z,2.80
2018-07-21T09:06:59.036Z,2.50
2018-07-21T09:07:59.049Z,2.70
2018-07-21T09:08:59.061Z,2.80
2018-07-21T09:09:59.066Z,2.70
2018-07-21T09:10:59.078Z,3.00
2018-07-21T09:11:59.081Z,2.40
2018-07-21T09:12:59.132Z,2.60
2018-07-21T09:13:59.101Z,2.70
2018-07-21T09:14:59.110Z,2.60
2018-07-21T09:15:59.131Z,2.80
2018-07-21T09:16:59.126Z,2.80
2018-07-21T09:17:59.136Z,2.70
2018-07-21T09:18:59.139Z,3.00
2018-07-21T09:19:59.148Z,3.00
2018-07-21T09:20:59.153Z,2.70
2018-07-21T09:21:59.163Z,2.90
2018-07-21T09:22:59.169Z,2.70
2018-07-21T09:23:59.176Z,2.80
2018-07-21T09:24:59.184Z,2.70
2018-07-21T09:25:59.192Z,3.00
2018-07-21T09:26:59.203Z,2.70
2018-07-21T09:27:59.209Z,2.90
2018-07-21T09:28:59.270Z,3.00
2018-07-21T09:29:59.216Z,2.70
2018-07-21T09:30:59.222Z,2.80
2018-07-21T09:31:59.225Z,2.90
2018-07-21T09:32:59.243Z,2.80
2018-07-21T09:33:59.242Z,2.90
2018-07-21T09:34:59.247Z,2.80
2018-07-21T09:35:59.254Z,2.90
2018-07-21T09:36:59.260Z,3.10
2018-07-21T09:37:59.266Z,3.00
2018-07-21T09:38:59.273Z,2.90
2018-07-21T09:39:59.276Z,3.10
2018-07-21T09:40:59.285Z,3.10
2018-07-21T09:41:59.290Z,3.10
2018-07-21T09:42:59.292Z,3.20
2018-07-21T09:43:59.297Z,3.30
2018-07-21T09:44:59.306Z,3.00
2018-07-21T09:45:59.313Z,3.20
2018-07-21T09:46:59.319Z,3.20
2018-07-21T09:47:59.322Z,3.30
2018-07-21T09:48:59.328Z,3.20
2018-07-21T09:49:59.333Z,3.10
2018-07-21T09:50:59.334Z,3.50
2018-07-21T09:51:59.344Z,3.20
2018-07-21T09:52:59.347Z,3.40
2018-07-21T09:53:59.353Z,3.20
2018-07-21T09:54:59.358Z,3.20
2018-07-21T09:55:59.380Z,3.30
2018-07-21T09:56:59.371Z,3.20
2018-07-21T09:57:59.377Z,3.30
2018-07-21T09:58:59.381Z,3.50
2018-07-21T09:59:59.387Z,3.20
2018-07-21T10:00:59.393Z,3.50
2018-07-21T10:01:59.400Z,3.30
2018-07-21T10:02:59.402Z,3.30
2018-07-21T10:03:59.409Z,3.40
2018-07-21T10:04:59.416Z,3.50
2018-07-21T10:05:59.422Z,3.50
2018-07-21T10:06:59.425Z,3.10
2018-07-21T10:07:59.432Z,3.40
2018-07-21T10:08:59.433Z,3.10
2018-07-21T10:09:59.442Z,3.30
2018-07-21T10:10:59.445Z,3.30
2018-07-21T10:11:59.449Z,3.30
2018-07-21T10:12:59.456Z,3.40
2018-07-21T10:13:59.460Z,3.50
2018-07-21T10:14:59.464Z,3.30
2018-07-21T10:15:59.469Z,3.30
2018-07-21T10:16:59.476Z,3.20
2018-07-21T10:17:59.483Z,3.30
2018-07-21T10:18:59.485Z,3.20
2018-07-21T10:19:59.510Z,3.40
2018-07-21T10:20:59.497Z,3.30
2018-07-21T10:21:59.597Z,3.50
2018-07-21T10:22:59.509Z,3.50
2018-07-21T10:23:59.516Z,3.10
2018-07-21T10:24:59.522Z,3.50
2018-07-21T10:25:59.529Z,3.20
2018-07-21T10:26:59.530Z,3.40
2018-07-21T10:27:59.535Z,3.60
2018-07-21T10:28:59.543Z,3.40
2018-07-21T10:29:59.548Z,3.70
2018-07-21T10:30:59.551Z,3.40
2018-07-21T10:31:59.552Z,3.30
2018-07-21T10:32:59.561Z,3.40
2018-07-21T10:33:59.567Z,3.40
2018-07-21T10:34:59.571Z,3.60
2018-07-21T10:35:59.588Z,3.50
2018-07-21T10:36:59.581Z,3.60
2018-07-21T10:37:59.591Z,3.60
2018-07-21T10:38:59.590Z,3.50
2018-07-21T10:39:59.598Z,3.50
2018-07-21T10:40:59.604Z,3.50
2018-07-21T10:41:59.608Z,3.60
2018-07-21T10:42:59.616Z,3.50
2018-07-21T10:43:59.619Z,3.40
2018-07-21T10:44:59.623Z,3.40
2018-07-21T10:45:59.629Z,3.50
2018-07-21T10:46:59.634Z,3.50
2018-07-21T10:47:59.657Z,3.70
2018-07-21T10:48:59.652Z,3.60
2018-07-21T10:49:59.651Z,3.80
2018-07-21T10:50:59.656Z,3.80
2018-07-21T10:51:59.665Z,3.70
2018-07-21T10:52:59.667Z,3.60
2018-07-21T10:53:59.673Z,3.50
2018-07-21T10:54:59.717Z,3.40
2018-07-21T10:55:59.685Z,3.60
2018-07-21T10:56:59.689Z,3.50
2018-07-21T10:57:59.696Z,3.50
2018-07-21T10:58:59.700Z,3.60
2018-07-21T10:59:59.706Z,3.70
2018-07-21T11:00:59.714Z,3.70
2018-07-21T11:01:59.719Z,3.50
2018-07-21T11:02:59.717Z,3.80
2018-07-21T11:03:59.723Z,3.80
2018-07-21T11:04:59.729Z,3.70
2018-07-21T11:05:59.734Z,3.80
2018-07-21T11:06:59.740Z,3.50
2018-07-21T11:07:59.772Z,3.60
2018-07-21T11:08:59.752Z,3.50
2018-07-21T11:09:59.758Z,3.60
2018-07-21T11:10:59.763Z,3.70
2018-07-21T11:11:59.769Z,3.70
2018-07-21T11:12:59.773Z,3.60
2018-07-21T11:13:59.779Z,3.50
2018-07-21T11:14:59.791Z,3.60
2018-07-21T11:15:59.789Z,3.70
2018-07-21T11:16:59.795Z,3.60
2018-07-21T11:17:59.821Z,3.70
2018-07-21T11:18:59.806Z,3.80
2018-07-21T11:19:59.813Z,3.70
2018-07-21T11:20:59.818Z,3.50
2018-07-21T11:21:59.877Z,3.60
2018-07-21T11:22:59.830Z,3.60
2018-07-21T11:23:59.863Z,3.50
2018-07-21T11:24:59.843Z,3.30
2018-07-21T11:25:59.849Z,3.60
2018-07-21T11:26:59.853Z,3.60
2018-07-21T11:27:59.857Z,3.50
2018-07-21T11:28:59.865Z,3.60
2018-07-21T11:29:59.866Z,3.60
2018-07-21T11:30:59.872Z,3.60
2018-07-21T11:31:59.880Z,3.60
2018-07-21T11:32:59.884Z,3.70
2018-07-21T11:33:59.891Z,3.70
2018-07-21T11:34:59.897Z,3.40
2018-07-21T11:36:00.277Z,3.80
2018-07-21T11:36:59.943Z,3.60
2018-07-21T11:37:59.915Z,3.80
2018-07-21T11:38:59.921Z,3.80
2018-07-21T11:39:59.928Z,3.50
2018-07-21T11:40:59.931Z,3.80
2018-07-21T11:41:59.941Z,3.30
2018-07-21T11:42:59.946Z,3.60
2018-07-21T11:43:59.949Z,3.80
2018-07-21T11:44:59.956Z,3.70
2018-07-21T11:45:59.962Z,3.60
2018-07-21T11:46:59.969Z,3.90
2018-07-21T11:47:59.974Z,3.40
2018-07-21T11:48:59.982Z,3.70
2018-07-21T11:49:59.986Z,3.80
2018-07-21T11:50:59.987Z,3.50
2018-07-21T11:51:59.999Z,3.70
2018-07-21T11:53:00.004Z,3.60
2018-07-21T11:54:00.005Z,3.70
2018-07-21T11:55:00.022Z,3.50
2018-07-21T11:56:00.023Z,3.90
2018-07-21T11:57:00.030Z,3.70
2018-07-21T11:58:00.038Z,3.60
2018-07-21T11:59:00.049Z,3.50
2018-07-21T12:00:00.059Z,3.60
2018-07-21T12:01:00.056Z,3.40
2018-07-21T12:02:00.063Z,3.60
2018-07-21T12:03:00.069Z,3.60
2018-07-21T12:04:00.075Z,3.60
2018-07-21T12:05:00.080Z,3.60
2018-07-21T12:06:00.089Z,3.60
2018-07-21T12:07:00.097Z,3.70
2018-07-21T12:08:00.106Z,3.70
2018-07-21T12:09:00.110Z,3.60
2018-07-21T12:10:00.115Z,3.90
2018-07-21T12:11:00.121Z,3.70
2018-07-21T12:12:00.144Z,3.80
2018-07-21T12:13:00.139Z,4.00
2018-07-21T12:14:00.142Z,3.60
2018-07-21T12:15:00.147Z,3.60
2018-07-21T12:16:00.153Z,3.50
2018-07-21T12:17:00.161Z,3.70
2018-07-21T12:18:00.163Z,3.70
2018-07-21T12:19:00.171Z,3.70
2018-07-21T12:20:00.177Z,3.60
2018-07-21T12:21:00.184Z,3.80
2018-07-21T12:22:00.189Z,3.70
2018-07-21T12:23:00.200Z,4.20
2018-07-21T12:24:00.202Z,3.90
2018-07-21T12:25:00.215Z,4.10
2018-07-21T12:26:00.221Z,4.10
2018-07-21T12:27:00.222Z,3.70
2018-07-21T12:28:00.233Z,3.90
2018-07-21T12:29:00.231Z,3.70
2018-07-21T12:30:00.238Z,3.80
2018-07-21T12:31:00.242Z,4.20
2018-07-21T12:32:00.247Z,3.60
2018-07-21T12:33:00.323Z,3.80
2018-07-21T12:34:00.264Z,4.20
2018-07-21T12:35:00.268Z,3.60
2018-07-21T12:36:00.275Z,3.90
2018-07-21T12:37:00.283Z,3.80
2018-07-21T12:38:00.287Z,3.90
2018-07-21T12:39:00.292Z,3.90
2018-07-21T12:40:00.344Z,3.70
2018-07-21T12:41:00.306Z,3.50
2018-07-21T12:42:00.353Z,3.80
2018-07-21T12:43:00.317Z,3.70
2018-07-21T12:44:00.324Z,3.60
2018-07-21T12:45:00.331Z,3.80
2018-07-21T12:46:00.339Z,3.80
2018-07-21T12:47:00.342Z,3.80
2018-07-21T12:48:00.348Z,3.70
2018-07-21T12:49:00.356Z,3.60
2018-07-21T12:50:00.361Z,3.80
2018-07-21T12:51:00.368Z,3.90
2018-07-21T12:52:00.402Z,3.90
2018-07-21T12:53:00.382Z,3.80
2018-07-21T12:54:00.386Z,3.80
2018-07-21T12:55:00.391Z,4.00
2018-07-21T12:56:00.397Z,3.90
2018-07-21T12:57:00.404Z,4.00
2018-07-21T12:58:00.410Z,3.80
2018-07-21T12:59:00.416Z,4.00
2018-07-21T13:00:00.422Z,3.90
2018-07-21T13:01:00.429Z,3.80
2018-07-21T13:02:00.438Z,4.20
2018-07-21T13:03:00.437Z,3.90
2018-07-21T13:04:00.445Z,4.10
2018-07-21T13:05:00.458Z,3.80
2018-07-21T13:06:00.461Z,4.00
2018-07-21T13:07:00.464Z,3.80
2018-07-21T13:08:00.468Z,3.90
2018-07-21T13:09:00.475Z,3.80
2018-07-21T13:10:00.483Z,4.00
2018-07-21T13:11:00.488Z,4.00
2018-07-21T13:12:00.493Z,3.80
2018-07-21T13:13:00.499Z,4.00
2018-07-21T13:14:00.506Z,3.90
2018-07-21T13:15:00.514Z,3.90
2018-07-21T13:16:00.529Z,4.00
2018-07-21T13:17:00.567Z,4.20
2018-07-21T13:18:00.534Z,3.90
2018-07-21T13:19:00.537Z,3.70